sensor_id;sensor_type;location;lat;lon;timestamp;P1;durP1;ratioP1;P2;durP2;ratioP2
45540;SDS011;31265;49.680;8.608;2023-11-19T00:00:35;4.70;;;2.00;;
45540;SDS011;31265;49.680;8.608;2023-11-19T00:03:05;3.67;;;2.20;;
45540;SDS011;31265;49.680;8.608;2023-11-19T00:05:33;3.38;;;1.92;;
45540;SDS011;31265;49.680;8.608;2023-11-19T00:08:02;4.40;;;1.77;;
45540;SDS011;31265;49.680;8.608;2023-11-19T00:10:30;3.72;;;1.98;;
45540;SDS011;31265;49.680;8.608;2023-11-19T00:12:59;4.95;;;2.15;;
45540;SDS011;31265;49.680;8.608;2023-11-19T00:15:31;3.17;;;1.60;;
45540;SDS011;31265;49.680;8.608;2023-11-19T00:18:00;4.25;;;1.90;;
45540;SDS011;31265;49.680;8.608;2023-11-19T00:20:31;3.40;;;1.70;;
45540;SDS011;31265;49.680;8.608;2023-11-19T00:23:00;3.58;;;1.40;;
45540;SDS011;31265;49.680;8.608;2023-11-19T00:25:29;3.95;;;1.45;;
45540;SDS011;31265;49.680;8.608;2023-11-19T00:27:57;6.95;;;1.75;;
45540;SDS011;31265;49.680;8.608;2023-11-19T00:30:26;8.80;;;2.63;;
45540;SDS011;31265;49.680;8.608;2023-11-19T00:32:56;3.88;;;1.48;;
45540;SDS011;31265;49.680;8.608;2023-11-19T00:35:25;4.68;;;1.90;;
45540;SDS011;31265;49.680;8.608;2023-11-19T00:37:54;2.35;;;1.50;;
45540;SDS011;31265;49.680;8.608;2023-11-19T00:40:22;4.40;;;1.80;;
45540;SDS011;31265;49.680;8.608;2023-11-19T00:42:50;6.05;;;1.67;;
45540;SDS011;31265;49.680;8.608;2023-11-19T00:45:19;4.55;;;1.45;;
45540;SDS011;31265;49.680;8.608;2023-11-19T00:47:48;2.72;;;1.35;;
45540;SDS011;31265;49.680;8.608;2023-11-19T00:50:20;6.38;;;2.35;;
45540;SDS011;31265;49.680;8.608;2023-11-19T00:52:49;2.55;;;1.35;;
45540;SDS011;31265;49.680;8.608;2023-11-19T00:55:18;2.83;;;1.52;;
45540;SDS011;31265;49.680;8.608;2023-11-19T00:57:47;2.00;;;1.33;;
45540;SDS011;31265;49.680;8.608;2023-11-19T01:00:16;2.90;;;1.50;;
45540;SDS011;31265;49.680;8.608;2023-11-19T01:02:47;2.58;;;1.48;;
45540;SDS011;31265;49.680;8.608;2023-11-19T01:05:20;2.83;;;1.10;;
45540;SDS011;31265;49.680;8.608;2023-11-19T01:07:50;3.22;;;1.40;;
45540;SDS011;31265;49.680;8.608;2023-11-19T01:10:21;4.95;;;1.05;;
45540;SDS011;31265;49.680;8.608;2023-11-19T01:12:51;2.38;;;0.95;;
45540;SDS011;31265;49.680;8.608;2023-11-19T01:15:20;1.63;;;0.90;;
45540;SDS011;31265;49.680;8.608;2023-11-19T01:17:50;2.17;;;1.10;;
45540;SDS011;31265;49.680;8.608;2023-11-19T01:20:21;2.10;;;1.10;;
45540;SDS011;31265;49.680;8.608;2023-11-19T01:22:50;2.08;;;0.93;;
45540;SDS011;31265;49.680;8.608;2023-11-19T01:25:19;1.52;;;0.63;;
45540;SDS011;31265;49.680;8.608;2023-11-19T01:27:47;2.05;;;0.85;;
45540;SDS011;31265;49.680;8.608;2023-11-19T01:32:48;2.67;;;0.80;;
45540;SDS011;31265;49.680;8.608;2023-11-19T01:35:16;3.20;;;1.23;;
45540;SDS011;31265;49.680;8.608;2023-11-19T01:37:46;3.08;;;1.00;;
45540;SDS011;31265;49.680;8.608;2023-11-19T01:40:19;2.17;;;0.90;;
45540;SDS011;31265;49.680;8.608;2023-11-19T01:42:50;2.58;;;1.40;;
45540;SDS011;31265;49.680;8.608;2023-11-19T01:45:21;2.27;;;0.50;;
45540;SDS011;31265;49.680;8.608;2023-11-19T01:47:55;3.33;;;0.60;;
45540;SDS011;31265;49.680;8.608;2023-11-19T01:50:24;1.70;;;0.70;;
45540;SDS011;31265;49.680;8.608;2023-11-19T01:52:55;2.15;;;0.95;;
45540;SDS011;31265;49.680;8.608;2023-11-19T01:55:27;1.23;;;0.60;;
45540;SDS011;31265;49.680;8.608;2023-11-19T01:57:57;2.63;;;0.80;;
45540;SDS011;31265;49.680;8.608;2023-11-19T02:00:29;2.50;;;0.90;;
45540;SDS011;31265;49.680;8.608;2023-11-19T02:03:00;1.05;;;0.60;;
45540;SDS011;31265;49.680;8.608;2023-11-19T02:05:30;3.10;;;0.70;;
45540;SDS011;31265;49.680;8.608;2023-11-19T02:08:01;0.50;;;0.20;;
45540;SDS011;31265;49.680;8.608;2023-11-19T02:10:30;1.33;;;0.70;;
45540;SDS011;31265;49.680;8.608;2023-11-19T02:13:00;1.08;;;0.52;;
45540;SDS011;31265;49.680;8.608;2023-11-19T02:15:33;1.35;;;0.50;;
45540;SDS011;31265;49.680;8.608;2023-11-19T02:18:17;1.73;;;0.50;;
45540;SDS011;31265;49.680;8.608;2023-11-19T02:20:49;2.08;;;0.50;;
45540;SDS011;31265;49.680;8.608;2023-11-19T02:23:21;0.68;;;0.40;;
45540;SDS011;31265;49.680;8.608;2023-11-19T02:28:44;1.17;;;0.35;;
45540;SDS011;31265;49.680;8.608;2023-11-19T02:31:12;1.17;;;0.47;;
45540;SDS011;31265;49.680;8.608;2023-11-19T02:33:41;0.40;;;0.20;;
45540;SDS011;31265;49.680;8.608;2023-11-19T02:36:12;1.58;;;0.40;;
45540;SDS011;31265;49.680;8.608;2023-11-19T02:38:40;1.48;;;0.47;;
45540;SDS011;31265;49.680;8.608;2023-11-19T02:41:09;1.33;;;0.65;;
45540;SDS011;31265;49.680;8.608;2023-11-19T02:43:37;0.73;;;0.40;;
45540;SDS011;31265;49.680;8.608;2023-11-19T02:46:07;1.00;;;0.40;;
45540;SDS011;31265;49.680;8.608;2023-11-19T02:48:38;1.38;;;0.50;;
45540;SDS011;31265;49.680;8.608;2023-11-19T02:51:07;2.47;;;0.80;;
45540;SDS011;31265;49.680;8.608;2023-11-19T02:53:37;1.25;;;0.63;;
45540;SDS011;31265;49.680;8.608;2023-11-19T02:56:07;1.88;;;0.65;;
45540;SDS011;31265;49.680;8.608;2023-11-19T02:58:46;1.25;;;0.60;;
45540;SDS011;31265;49.680;8.608;2023-11-19T03:01:22;1.58;;;0.50;;
45540;SDS011;31265;49.680;8.608;2023-11-19T03:03:58;1.05;;;0.80;;
45540;SDS011;31265;49.680;8.608;2023-11-19T03:06:30;1.33;;;0.68;;
45540;SDS011;31265;49.680;8.608;2023-11-19T03:08:59;0.97;;;0.57;;
45540;SDS011;31265;49.680;8.608;2023-11-19T03:11:33;0.70;;;0.40;;
45540;SDS011;31265;49.680;8.608;2023-11-19T03:14:01;1.30;;;0.47;;
45540;SDS011;31265;49.680;8.608;2023-11-19T03:16:31;0.98;;;0.40;;
45540;SDS011;31265;49.680;8.608;2023-11-19T03:19:00;2.55;;;1.13;;
45540;SDS011;31265;49.680;8.608;2023-11-19T03:21:31;1.13;;;0.73;;
45540;SDS011;31265;49.680;8.608;2023-11-19T03:24:00;1.67;;;0.75;;
45540;SDS011;31265;49.680;8.608;2023-11-19T03:26:28;1.35;;;0.70;;
45540;SDS011;31265;49.680;8.608;2023-11-19T03:28:58;3.15;;;1.25;;
45540;SDS011;31265;49.680;8.608;2023-11-19T03:31:26;1.92;;;0.90;;
45540;SDS011;31265;49.680;8.608;2023-11-19T03:33:58;1.45;;;0.88;;
45540;SDS011;31265;49.680;8.608;2023-11-19T03:36:31;1.50;;;0.80;;
45540;SDS011;31265;49.680;8.608;2023-11-19T03:39:00;2.22;;;1.17;;
45540;SDS011;31265;49.680;8.608;2023-11-19T03:41:29;1.27;;;0.70;;
45540;SDS011;31265;49.680;8.608;2023-11-19T03:44:08;1.73;;;0.88;;
45540;SDS011;31265;49.680;8.608;2023-11-19T03:46:36;1.52;;;0.70;;
45540;SDS011;31265;49.680;8.608;2023-11-19T03:49:07;1.33;;;0.50;;
45540;SDS011;31265;49.680;8.608;2023-11-19T03:51:35;1.23;;;0.85;;
45540;SDS011;31265;49.680;8.608;2023-11-19T03:54:04;0.98;;;0.57;;
45540;SDS011;31265;49.680;8.608;2023-11-19T03:56:34;1.67;;;0.60;;
45540;SDS011;31265;49.680;8.608;2023-11-19T03:59:02;3.05;;;0.60;;
45540;SDS011;31265;49.680;8.608;2023-11-19T04:01:31;3.58;;;1.25;;
45540;SDS011;31265;49.680;8.608;2023-11-19T04:03:59;1.90;;;1.00;;
45540;SDS011;31265;49.680;8.608;2023-11-19T04:06:29;2.08;;;1.00;;
45540;SDS011;31265;49.680;8.608;2023-11-19T04:08:58;1.55;;;0.70;;
45540;SDS011;31265;49.680;8.608;2023-11-19T04:11:27;1.35;;;0.80;;
45540;SDS011;31265;49.680;8.608;2023-11-19T04:13:55;1.20;;;0.77;;
45540;SDS011;31265;49.680;8.608;2023-11-19T04:16:27;1.42;;;0.82;;
45540;SDS011;31265;49.680;8.608;2023-11-19T04:18:56;2.10;;;0.90;;
45540;SDS011;31265;49.680;8.608;2023-11-19T04:21:25;1.58;;;0.80;;
45540;SDS011;31265;49.680;8.608;2023-11-19T04:23:55;1.85;;;0.85;;
45540;SDS011;31265;49.680;8.608;2023-11-19T04:26:23;2.55;;;1.42;;
45540;SDS011;31265;49.680;8.608;2023-11-19T04:28:52;2.38;;;0.98;;
45540;SDS011;31265;49.680;8.608;2023-11-19T04:31:20;1.77;;;1.00;;
45540;SDS011;31265;49.680;8.608;2023-11-19T04:33:52;2.47;;;1.20;;
45540;SDS011;31265;49.680;8.608;2023-11-19T04:36:21;2.40;;;1.20;;
45540;SDS011;31265;49.680;8.608;2023-11-19T04:38:51;1.73;;;0.90;;
45540;SDS011;31265;49.680;8.608;2023-11-19T04:41:21;2.80;;;1.20;;
45540;SDS011;31265;49.680;8.608;2023-11-19T04:43:49;2.45;;;1.20;;
45540;SDS011;31265;49.680;8.608;2023-11-19T04:46:18;1.80;;;1.02;;
45540;SDS011;31265;49.680;8.608;2023-11-19T04:48:46;3.33;;;1.73;;
45540;SDS011;31265;49.680;8.608;2023-11-19T04:51:15;1.75;;;1.17;;
45540;SDS011;31265;49.680;8.608;2023-11-19T04:53:43;1.63;;;0.90;;
45540;SDS011;31265;49.680;8.608;2023-11-19T04:56:11;2.70;;;1.38;;
45540;SDS011;31265;49.680;8.608;2023-11-19T04:58:41;2.47;;;1.30;;
45540;SDS011;31265;49.680;8.608;2023-11-19T05:01:13;2.42;;;1.23;;
45540;SDS011;31265;49.680;8.608;2023-11-19T05:03:44;4.38;;;2.22;;
45540;SDS011;31265;49.680;8.608;2023-11-19T05:06:17;6.90;;;1.27;;
45540;SDS011;31265;49.680;8.608;2023-11-19T05:08:47;3.67;;;1.05;;
45540;SDS011;31265;49.680;8.608;2023-11-19T05:11:15;3.65;;;1.17;;
45540;SDS011;31265;49.680;8.608;2023-11-19T05:13:47;1.65;;;0.90;;
45540;SDS011;31265;49.680;8.608;2023-11-19T05:16:17;6.38;;;1.40;;
45540;SDS011;31265;49.680;8.608;2023-11-19T05:18:46;1.70;;;0.95;;
45540;SDS011;31265;49.680;8.608;2023-11-19T05:21:14;1.85;;;0.98;;
45540;SDS011;31265;49.680;8.608;2023-11-19T05:26:20;2.22;;;0.98;;
45540;SDS011;31265;49.680;8.608;2023-11-19T05:28:51;1.85;;;1.10;;
45540;SDS011;31265;49.680;8.608;2023-11-19T05:33:48;2.42;;;1.10;;
45540;SDS011;31265;49.680;8.608;2023-11-19T05:36:17;2.15;;;1.10;;
45540;SDS011;31265;49.680;8.608;2023-11-19T05:38:46;2.92;;;1.20;;
45540;SDS011;31265;49.680;8.608;2023-11-19T05:41:16;1.45;;;0.93;;
45540;SDS011;31265;49.680;8.608;2023-11-19T05:43:45;1.67;;;0.77;;
45540;SDS011;31265;49.680;8.608;2023-11-19T05:46:15;3.15;;;0.80;;
45540;SDS011;31265;49.680;8.608;2023-11-19T05:48:47;2.22;;;1.05;;
45540;SDS011;31265;49.680;8.608;2023-11-19T05:51:18;2.13;;;0.80;;
45540;SDS011;31265;49.680;8.608;2023-11-19T05:53:47;2.60;;;1.23;;
45540;SDS011;31265;49.680;8.608;2023-11-19T05:56:17;1.83;;;1.05;;
45540;SDS011;31265;49.680;8.608;2023-11-19T05:58:48;2.13;;;1.08;;
45540;SDS011;31265;49.680;8.608;2023-11-19T06:01:18;1.75;;;0.85;;
45540;SDS011;31265;49.680;8.608;2023-11-19T06:03:47;1.92;;;1.08;;
45540;SDS011;31265;49.680;8.608;2023-11-19T06:06:18;2.55;;;1.05;;
45540;SDS011;31265;49.680;8.608;2023-11-19T06:08:47;1.85;;;0.73;;
45540;SDS011;31265;49.680;8.608;2023-11-19T06:11:15;1.33;;;0.80;;
45540;SDS011;31265;49.680;8.608;2023-11-19T06:13:45;1.55;;;0.75;;
45540;SDS011;31265;49.680;8.608;2023-11-19T06:16:15;2.67;;;0.98;;
45540;SDS011;31265;49.680;8.608;2023-11-19T06:18:45;1.65;;;0.77;;
45540;SDS011;31265;49.680;8.608;2023-11-19T06:21:14;2.50;;;1.30;;
45540;SDS011;31265;49.680;8.608;2023-11-19T06:23:43;4.10;;;1.00;;
45540;SDS011;31265;49.680;8.608;2023-11-19T06:26:11;2.22;;;1.00;;
45540;SDS011;31265;49.680;8.608;2023-11-19T06:28:40;3.28;;;1.30;;
45540;SDS011;31265;49.680;8.608;2023-11-19T06:31:09;2.33;;;0.98;;
45540;SDS011;31265;49.680;8.608;2023-11-19T06:33:37;12.90;;;4.00;;
45540;SDS011;31265;49.680;8.608;2023-11-19T06:36:08;10.30;;;4.20;;
45540;SDS011;31265;49.680;8.608;2023-11-19T06:38:37;5.95;;;2.40;;
45540;SDS011;31265;49.680;8.608;2023-11-19T06:41:07;17.02;;;5.63;;
45540;SDS011;31265;49.680;8.608;2023-11-19T06:43:36;36.72;;;10.85;;
45540;SDS011;31265;49.680;8.608;2023-11-19T06:46:14;23.92;;;7.10;;
45540;SDS011;31265;49.680;8.608;2023-11-19T06:48:44;24.15;;;8.50;;
45540;SDS011;31265;49.680;8.608;2023-11-19T06:51:14;9.77;;;3.37;;
45540;SDS011;31265;49.680;8.608;2023-11-19T06:53:43;12.27;;;6.47;;
45540;SDS011;31265;49.680;8.608;2023-11-19T06:56:19;3.40;;;1.95;;
45540;SDS011;31265;49.680;8.608;2023-11-19T06:58:49;4.22;;;2.72;;
45540;SDS011;31265;49.680;8.608;2023-11-19T07:01:17;2.70;;;1.42;;
45540;SDS011;31265;49.680;8.608;2023-11-19T07:03:47;2.28;;;0.95;;
45540;SDS011;31265;49.680;8.608;2023-11-19T07:06:18;3.38;;;1.70;;
45540;SDS011;31265;49.680;8.608;2023-11-19T07:09:01;2.13;;;0.93;;
45540;SDS011;31265;49.680;8.608;2023-11-19T07:11:37;2.05;;;1.13;;
45540;SDS011;31265;49.680;8.608;2023-11-19T07:14:07;1.88;;;0.90;;
45540;SDS011;31265;49.680;8.608;2023-11-19T07:16:36;1.50;;;0.95;;
45540;SDS011;31265;49.680;8.608;2023-11-19T07:19:07;2.08;;;1.17;;
45540;SDS011;31265;49.680;8.608;2023-11-19T07:21:39;3.55;;;1.35;;
45540;SDS011;31265;49.680;8.608;2023-11-19T07:24:11;4.88;;;1.45;;
45540;SDS011;31265;49.680;8.608;2023-11-19T07:26:41;3.00;;;1.85;;
45540;SDS011;31265;49.680;8.608;2023-11-19T07:29:11;4.18;;;2.17;;
45540;SDS011;31265;49.680;8.608;2023-11-19T07:31:39;5.70;;;2.65;;
45540;SDS011;31265;49.680;8.608;2023-11-19T07:34:08;2.95;;;1.40;;
45540;SDS011;31265;49.680;8.608;2023-11-19T07:36:38;4.93;;;2.00;;
45540;SDS011;31265;49.680;8.608;2023-11-19T07:39:09;18.77;;;9.80;;
45540;SDS011;31265;49.680;8.608;2023-11-19T07:41:37;15.30;;;8.10;;
45540;SDS011;31265;49.680;8.608;2023-11-19T07:44:08;6.80;;;3.38;;
45540;SDS011;31265;49.680;8.608;2023-11-19T07:46:37;4.70;;;1.90;;
45540;SDS011;31265;49.680;8.608;2023-11-19T07:49:05;1.73;;;1.05;;
45540;SDS011;31265;49.680;8.608;2023-11-19T07:51:34;2.03;;;1.00;;
45540;SDS011;31265;49.680;8.608;2023-11-19T07:54:05;2.63;;;1.20;;
45540;SDS011;31265;49.680;8.608;2023-11-19T07:56:33;2.75;;;0.75;;
45540;SDS011;31265;49.680;8.608;2023-11-19T07:59:02;2.03;;;0.90;;
45540;SDS011;31265;49.680;8.608;2023-11-19T08:01:31;2.03;;;1.10;;
45540;SDS011;31265;49.680;8.608;2023-11-19T08:03:59;2.22;;;0.70;;
45540;SDS011;31265;49.680;8.608;2023-11-19T08:06:29;1.23;;;0.55;;
45540;SDS011;31265;49.680;8.608;2023-11-19T08:08:58;2.63;;;1.57;;
45540;SDS011;31265;49.680;8.608;2023-11-19T08:11:28;0.97;;;0.57;;
45540;SDS011;31265;49.680;8.608;2023-11-19T08:13:57;1.27;;;0.60;;
45540;SDS011;31265;49.680;8.608;2023-11-19T08:16:25;1.60;;;0.75;;
45540;SDS011;31265;49.680;8.608;2023-11-19T08:18:54;2.60;;;0.65;;
45540;SDS011;31265;49.680;8.608;2023-11-19T08:21:26;1.38;;;0.50;;
45540;SDS011;31265;49.680;8.608;2023-11-19T08:23:54;0.55;;;0.38;;
45540;SDS011;31265;49.680;8.608;2023-11-19T08:26:23;3.80;;;0.60;;
45540;SDS011;31265;49.680;8.608;2023-11-19T08:28:53;3.45;;;0.55;;
45540;SDS011;31265;49.680;8.608;2023-11-19T08:31:27;1.45;;;0.60;;
45540;SDS011;31265;49.680;8.608;2023-11-19T08:36:25;1.60;;;0.60;;
45540;SDS011;31265;49.680;8.608;2023-11-19T08:38:54;0.65;;;0.32;;
45540;SDS011;31265;49.680;8.608;2023-11-19T08:41:23;0.93;;;0.40;;
45540;SDS011;31265;49.680;8.608;2023-11-19T08:43:55;2.35;;;0.70;;
45540;SDS011;31265;49.680;8.608;2023-11-19T08:46:23;0.20;;;0.17;;
45540;SDS011;31265;49.680;8.608;2023-11-19T08:48:53;7.22;;;0.93;;
45540;SDS011;31265;49.680;8.608;2023-11-19T08:51:23;3.05;;;1.33;;
45540;SDS011;31265;49.680;8.608;2023-11-19T08:56:21;9.48;;;3.13;;
45540;SDS011;31265;49.680;8.608;2023-11-19T08:58:50;30.08;;;10.60;;
45540;SDS011;31265;49.680;8.608;2023-11-19T09:01:19;36.33;;;13.45;;
45540;SDS011;31265;49.680;8.608;2023-11-19T09:03:48;13.88;;;6.30;;
45540;SDS011;31265;49.680;8.608;2023-11-19T09:06:16;12.00;;;4.07;;
45540;SDS011;31265;49.680;8.608;2023-11-19T09:08:45;28.30;;;12.20;;
45540;SDS011;31265;49.680;8.608;2023-11-19T09:11:13;3.03;;;1.52;;
45540;SDS011;31265;49.680;8.608;2023-11-19T09:13:42;8.30;;;4.10;;
45540;SDS011;31265;49.680;8.608;2023-11-19T09:16:11;2.80;;;1.08;;
45540;SDS011;31265;49.680;8.608;2023-11-19T09:18:41;2.25;;;1.10;;
45540;SDS011;31265;49.680;8.608;2023-11-19T09:23:38;2.53;;;1.13;;
45540;SDS011;31265;49.680;8.608;2023-11-19T09:26:08;3.25;;;1.38;;
45540;SDS011;31265;49.680;8.608;2023-11-19T09:28:37;2.42;;;1.10;;
45540;SDS011;31265;49.680;8.608;2023-11-19T09:31:12;1.83;;;0.70;;
45540;SDS011;31265;49.680;8.608;2023-11-19T09:33:42;1.88;;;1.00;;
45540;SDS011;31265;49.680;8.608;2023-11-19T09:36:12;1.48;;;0.63;;
45540;SDS011;31265;49.680;8.608;2023-11-19T09:38:41;0.35;;;0.28;;
45540;SDS011;31265;49.680;8.608;2023-11-19T09:41:09;0.90;;;0.40;;
45540;SDS011;31265;49.680;8.608;2023-11-19T09:43:39;2.47;;;0.75;;
45540;SDS011;31265;49.680;8.608;2023-11-19T09:46:09;2.07;;;1.20;;
45540;SDS011;31265;49.680;8.608;2023-11-19T09:48:38;1.27;;;0.57;;
45540;SDS011;31265;49.680;8.608;2023-11-19T09:51:11;1.65;;;0.68;;
45540;SDS011;31265;49.680;8.608;2023-11-19T09:53:40;1.42;;;0.77;;
45540;SDS011;31265;49.680;8.608;2023-11-19T09:56:09;1.33;;;0.50;;
45540;SDS011;31265;49.680;8.608;2023-11-19T09:58:41;2.78;;;1.17;;
45540;SDS011;31265;49.680;8.608;2023-11-19T10:01:10;2.70;;;0.80;;
45540;SDS011;31265;49.680;8.608;2023-11-19T10:03:42;1.92;;;0.60;;
45540;SDS011;31265;49.680;8.608;2023-11-19T10:06:16;3.78;;;1.65;;
45540;SDS011;31265;49.680;8.608;2023-11-19T10:08:46;3.15;;;1.20;;
45540;SDS011;31265;49.680;8.608;2023-11-19T10:11:14;0.65;;;0.30;;
45540;SDS011;31265;49.680;8.608;2023-11-19T10:13:43;1.00;;;0.52;;
45540;SDS011;31265;49.680;8.608;2023-11-19T10:16:14;0.85;;;0.40;;
45540;SDS011;31265;49.680;8.608;2023-11-19T10:18:44;1.60;;;0.50;;
45540;SDS011;31265;49.680;8.608;2023-11-19T10:21:14;2.08;;;0.60;;
45540;SDS011;31265;49.680;8.608;2023-11-19T10:23:51;2.17;;;0.55;;
45540;SDS011;31265;49.680;8.608;2023-11-19T10:26:22;3.83;;;1.85;;
45540;SDS011;31265;49.680;8.608;2023-11-19T10:28:51;7.57;;;2.47;;
45540;SDS011;31265;49.680;8.608;2023-11-19T10:31:20;8.57;;;2.88;;
45540;SDS011;31265;49.680;8.608;2023-11-19T10:33:52;6.03;;;2.75;;
45540;SDS011;31265;49.680;8.608;2023-11-19T10:36:21;4.32;;;1.92;;
45540;SDS011;31265;49.680;8.608;2023-11-19T10:38:53;1.95;;;1.08;;
45540;SDS011;31265;49.680;8.608;2023-11-19T10:41:28;2.85;;;0.82;;
45540;SDS011;31265;49.680;8.608;2023-11-19T10:43:58;1.85;;;0.63;;
45540;SDS011;31265;49.680;8.608;2023-11-19T10:46:37;3.50;;;0.80;;
45540;SDS011;31265;49.680;8.608;2023-11-19T10:49:07;4.25;;;1.08;;
45540;SDS011;31265;49.680;8.608;2023-11-19T10:51:36;3.90;;;1.20;;
45540;SDS011;31265;49.680;8.608;2023-11-19T10:54:07;3.28;;;0.85;;
45540;SDS011;31265;49.680;8.608;2023-11-19T10:56:37;3.13;;;1.25;;
45540;SDS011;31265;49.680;8.608;2023-11-19T10:59:08;3.17;;;1.10;;
45540;SDS011;31265;49.680;8.608;2023-11-19T11:01:43;2.20;;;1.15;;
45540;SDS011;31265;49.680;8.608;2023-11-19T11:04:13;3.33;;;1.27;;
45540;SDS011;31265;49.680;8.608;2023-11-19T11:06:43;5.35;;;2.75;;
45540;SDS011;31265;49.680;8.608;2023-11-19T11:09:12;7.20;;;1.88;;
45540;SDS011;31265;49.680;8.608;2023-11-19T11:11:43;2.45;;;1.27;;
45540;SDS011;31265;49.680;8.608;2023-11-19T11:14:15;6.28;;;3.00;;
45540;SDS011;31265;49.680;8.608;2023-11-19T11:16:46;2.63;;;1.05;;
45540;SDS011;31265;49.680;8.608;2023-11-19T11:19:17;10.25;;;2.72;;
45540;SDS011;31265;49.680;8.608;2023-11-19T11:21:47;8.33;;;1.67;;
45540;SDS011;31265;49.680;8.608;2023-11-19T11:27:26;2.67;;;0.98;;
45540;SDS011;31265;49.680;8.608;2023-11-19T11:30:18;2.03;;;0.60;;
45540;SDS011;31265;49.680;8.608;2023-11-19T11:32:59;1.88;;;0.70;;
45540;SDS011;31265;49.680;8.608;2023-11-19T11:35:37;1.88;;;0.77;;
45540;SDS011;31265;49.680;8.608;2023-11-19T11:38:16;3.83;;;0.70;;
45540;SDS011;31265;49.680;8.608;2023-11-19T11:43:47;1.45;;;0.28;;
45540;SDS011;31265;49.680;8.608;2023-11-19T11:49:26;2.60;;;0.98;;
45540;SDS011;31265;49.680;8.608;2023-11-19T11:51:57;2.17;;;0.60;;
45540;SDS011;31265;49.680;8.608;2023-11-19T11:54:30;4.05;;;1.55;;
45540;SDS011;31265;49.680;8.608;2023-11-19T11:59:48;2.15;;;0.80;;
45540;SDS011;31265;49.680;8.608;2023-11-19T12:02:18;3.70;;;0.83;;
45540;SDS011;31265;49.680;8.608;2023-11-19T12:04:49;1.33;;;0.52;;
45540;SDS011;31265;49.680;8.608;2023-11-19T12:07:21;2.90;;;0.65;;
45540;SDS011;31265;49.680;8.608;2023-11-19T12:09:51;4.15;;;0.32;;
45540;SDS011;31265;49.680;8.608;2023-11-19T12:12:26;1.33;;;0.50;;
45540;SDS011;31265;49.680;8.608;2023-11-19T12:15:00;4.32;;;0.35;;
45540;SDS011;31265;49.680;8.608;2023-11-19T12:17:36;7.43;;;0.52;;
45540;SDS011;31265;49.680;8.608;2023-11-19T12:20:07;2.33;;;0.52;;
45540;SDS011;31265;49.680;8.608;2023-11-19T12:22:37;1.75;;;0.30;;
45540;SDS011;31265;49.680;8.608;2023-11-19T12:27:37;3.42;;;0.75;;
45540;SDS011;31265;49.680;8.608;2023-11-19T12:30:08;1.98;;;0.22;;
45540;SDS011;31265;49.680;8.608;2023-11-19T12:32:37;2.28;;;0.60;;
45540;SDS011;31265;49.680;8.608;2023-11-19T12:35:07;5.50;;;0.63;;
45540;SDS011;31265;49.680;8.608;2023-11-19T12:37:41;0.40;;;0.20;;
45540;SDS011;31265;49.680;8.608;2023-11-19T12:40:11;3.63;;;0.60;;
45540;SDS011;31265;49.680;8.608;2023-11-19T12:42:43;1.80;;;0.38;;
45540;SDS011;31265;49.680;8.608;2023-11-19T12:45:12;4.93;;;0.90;;
45540;SDS011;31265;49.680;8.608;2023-11-19T12:47:40;1.85;;;0.55;;
45540;SDS011;31265;49.680;8.608;2023-11-19T12:50:09;4.95;;;0.65;;
45540;SDS011;31265;49.680;8.608;2023-11-19T12:52:38;2.13;;;0.57;;
45540;SDS011;31265;49.680;8.608;2023-11-19T12:57:57;1.77;;;0.70;;
45540;SDS011;31265;49.680;8.608;2023-11-19T13:00:26;4.05;;;0.20;;
45540;SDS011;31265;49.680;8.608;2023-11-19T13:02:57;2.92;;;0.63;;
45540;SDS011;31265;49.680;8.608;2023-11-19T13:05:30;3.70;;;0.60;;
45540;SDS011;31265;49.680;8.608;2023-11-19T13:08:00;1.02;;;0.40;;
45540;SDS011;31265;49.680;8.608;2023-11-19T13:10:30;4.90;;;0.50;;
45540;SDS011;31265;49.680;8.608;2023-11-19T13:13:01;3.97;;;0.70;;
45540;SDS011;31265;49.680;8.608;2023-11-19T13:15:34;3.90;;;0.98;;
45540;SDS011;31265;49.680;8.608;2023-11-19T13:18:12;4.45;;;0.90;;
45540;SDS011;31265;49.680;8.608;2023-11-19T13:20:41;4.45;;;0.95;;
45540;SDS011;31265;49.680;8.608;2023-11-19T13:23:10;5.93;;;0.68;;
45540;SDS011;31265;49.680;8.608;2023-11-19T13:25:39;0.98;;;0.20;;
45540;SDS011;31265;49.680;8.608;2023-11-19T13:30:38;2.03;;;0.20;;
45540;SDS011;31265;49.680;8.608;2023-11-19T13:33:06;3.20;;;0.65;;
45540;SDS011;31265;49.680;8.608;2023-11-19T13:35:39;5.32;;;0.68;;
45540;SDS011;31265;49.680;8.608;2023-11-19T13:38:07;5.05;;;0.70;;
45540;SDS011;31265;49.680;8.608;2023-11-19T13:40:36;2.00;;;0.63;;
45540;SDS011;31265;49.680;8.608;2023-11-19T13:43:06;2.22;;;0.57;;
45540;SDS011;31265;49.680;8.608;2023-11-19T13:48:05;2.55;;;0.60;;
45540;SDS011;31265;49.680;8.608;2023-11-19T13:50:33;3.58;;;0.32;;
45540;SDS011;31265;49.680;8.608;2023-11-19T13:53:02;1.45;;;0.63;;
45540;SDS011;31265;49.680;8.608;2023-11-19T13:55:31;1.40;;;0.40;;
45540;SDS011;31265;49.680;8.608;2023-11-19T13:58:00;3.70;;;0.40;;
45540;SDS011;31265;49.680;8.608;2023-11-19T14:00:28;2.60;;;0.20;;
45540;SDS011;31265;49.680;8.608;2023-11-19T14:02:58;3.22;;;0.40;;
45540;SDS011;31265;49.680;8.608;2023-11-19T14:05:28;4.95;;;1.27;;
45540;SDS011;31265;49.680;8.608;2023-11-19T14:07:59;1.10;;;0.40;;
45540;SDS011;31265;49.680;8.608;2023-11-19T14:10:30;1.65;;;0.40;;
45540;SDS011;31265;49.680;8.608;2023-11-19T14:12:59;3.45;;;0.55;;
45540;SDS011;31265;49.680;8.608;2023-11-19T14:15:28;1.30;;;0.32;;
45540;SDS011;31265;49.680;8.608;2023-11-19T14:17:59;2.20;;;0.65;;
45540;SDS011;31265;49.680;8.608;2023-11-19T14:22:58;1.67;;;0.22;;
45540;SDS011;31265;49.680;8.608;2023-11-19T14:25:26;10.18;;;0.57;;
45540;SDS011;31265;49.680;8.608;2023-11-19T14:27:55;1.25;;;0.28;;
45540;SDS011;31265;49.680;8.608;2023-11-19T14:30:23;3.15;;;0.47;;
45540;SDS011;31265;49.680;8.608;2023-11-19T14:32:52;6.70;;;0.50;;
45540;SDS011;31265;49.680;8.608;2023-11-19T14:35:22;0.85;;;0.32;;
45540;SDS011;31265;49.680;8.608;2023-11-19T14:37:52;1.27;;;0.22;;
45540;SDS011;31265;49.680;8.608;2023-11-19T14:40:20;1.42;;;0.30;;
45540;SDS011;31265;49.680;8.608;2023-11-19T14:42:48;3.75;;;0.38;;
45540;SDS011;31265;49.680;8.608;2023-11-19T14:45:16;2.35;;;0.40;;
45540;SDS011;31265;49.680;8.608;2023-11-19T14:47:46;1.13;;;0.52;;
45540;SDS011;31265;49.680;8.608;2023-11-19T14:50:14;4.13;;;0.40;;
45540;SDS011;31265;49.680;8.608;2023-11-19T14:52:44;2.72;;;0.65;;
45540;SDS011;31265;49.680;8.608;2023-11-19T14:57:41;2.53;;;0.43;;
45540;SDS011;31265;49.680;8.608;2023-11-19T15:00:23;1.55;;;0.40;;
45540;SDS011;31265;49.680;8.608;2023-11-19T15:02:52;2.07;;;0.70;;
45540;SDS011;31265;49.680;8.608;2023-11-19T15:05:21;4.07;;;0.77;;
45540;SDS011;31265;49.680;8.608;2023-11-19T15:07:52;6.13;;;1.35;;
45540;SDS011;31265;49.680;8.608;2023-11-19T15:10:20;5.70;;;1.33;;
45540;SDS011;31265;49.680;8.608;2023-11-19T15:12:52;1.45;;;0.57;;
45540;SDS011;31265;49.680;8.608;2023-11-19T15:17:52;0.38;;;0.10;;
45540;SDS011;31265;49.680;8.608;2023-11-19T15:20:21;1.70;;;0.40;;
45540;SDS011;31265;49.680;8.608;2023-11-19T15:22:50;3.97;;;0.70;;
45540;SDS011;31265;49.680;8.608;2023-11-19T15:25:20;4.10;;;0.68;;
45540;SDS011;31265;49.680;8.608;2023-11-19T15:27:49;1.38;;;0.22;;
45540;SDS011;31265;49.680;8.608;2023-11-19T15:30:18;1.15;;;0.30;;
45540;SDS011;31265;49.680;8.608;2023-11-19T15:32:46;2.83;;;0.68;;
45540;SDS011;31265;49.680;8.608;2023-11-19T15:35:15;6.17;;;1.00;;
45540;SDS011;31265;49.680;8.608;2023-11-19T15:37:44;5.63;;;2.20;;
45540;SDS011;31265;49.680;8.608;2023-11-19T15:40:12;5.05;;;0.82;;
45540;SDS011;31265;49.680;8.608;2023-11-19T15:42:42;2.05;;;0.47;;
45540;SDS011;31265;49.680;8.608;2023-11-19T15:45:12;3.97;;;0.40;;
45540;SDS011;31265;49.680;8.608;2023-11-19T15:47:40;2.22;;;0.57;;
45540;SDS011;31265;49.680;8.608;2023-11-19T15:50:09;4.53;;;0.45;;
45540;SDS011;31265;49.680;8.608;2023-11-19T15:52:38;3.03;;;0.40;;